createdAt,value
2023-05-03T00:02:02.455Z,76.02
2023-05-03T00:04:35.573Z,75.62
2023-05-03T00:07:08.986Z,76.29
2023-05-03T00:09:41.810Z,75.75
2023-05-03T00:12:16.349Z,75.95
2023-05-03T00:14:49.188Z,76.31
2023-05-03T00:17:22.159Z,76.11
2023-05-03T00:19:56.383Z,75.60
2023-05-03T00:22:29.780Z,76.20
2023-05-03T00:25:02.654Z,76.20
2023-05-03T00:27:36.956Z,76.25
2023-05-03T00:30:11.247Z,76.29
2023-05-03T00:32:44.376Z,76.23
2023-05-03T00:35:17.631Z,75.98
2023-05-03T00:37:50.317Z,75.58
2023-05-03T00:40:23.118Z,75.70
2023-05-03T00:42:57.653Z,76.00
2023-05-03T00:45:31.827Z,75.95
2023-05-03T00:48:04.984Z,75.90
2023-05-03T00:50:38.585Z,75.52
2023-05-03T00:53:14.476Z,75.56
2023-05-03T00:55:47.274Z,75.50
2023-05-03T00:58:21.550Z,75.91
2023-05-03T01:00:55.187Z,75.81
2023-05-03T01:03:28.753Z,76.05
2023-05-03T01:06:13.285Z,75.63
2023-05-03T01:08:48.791Z,76.05
2023-05-03T01:11:24.415Z,75.92
2023-05-03T01:14:02.572Z,76.10
2023-05-03T01:16:38.092Z,75.98
2023-05-03T01:19:16.091Z,75.83
2023-05-03T01:21:51.684Z,75.70
2023-05-03T01:24:26.152Z,76.03
2023-05-03T01:27:00.417Z,75.79
2023-05-03T01:29:33.531Z,75.83
2023-05-03T01:32:09.704Z,75.92
2023-05-03T01:34:52.237Z,75.79
2023-05-03T01:37:25.053Z,75.82
2023-05-03T01:40:01.314Z,75.94
2023-05-03T01:42:36.721Z,76.05
2023-05-03T01:45:10.670Z,76.20
2023-05-03T01:47:43.591Z,76.29
2023-05-03T01:50:18.762Z,77.14
2023-05-03T01:52:54.575Z,77.33
2023-05-03T01:55:27.275Z,77.50
2023-05-03T01:58:02.024Z,77.46
2023-05-03T02:00:34.737Z,77.93
2023-05-03T02:03:08.066Z,77.72
2023-05-03T02:05:41.473Z,78.03
2023-05-03T02:08:14.366Z,77.80
2023-05-03T02:10:47.510Z,77.80
2023-05-03T02:13:22.493Z,77.99
2023-05-03T02:15:56.028Z,77.98
2023-05-03T02:18:32.009Z,77.88
2023-05-03T02:21:06.150Z,77.91
2023-05-03T02:23:39.222Z,78.23
2023-05-03T02:26:12.199Z,78.50
2023-05-03T02:28:46.970Z,77.93
2023-05-03T02:31:21.193Z,77.76
2023-05-03T02:33:56.152Z,76.91
2023-05-03T02:36:29.035Z,76.88
2023-05-03T02:39:02.613Z,76.50
2023-05-03T02:41:35.600Z,76.25
2023-05-03T02:44:09.955Z,76.53
2023-05-03T02:46:43.625Z,76.49
2023-05-03T02:49:16.516Z,76.50
2023-05-03T02:51:49.432Z,76.24
2023-05-03T02:54:22.512Z,76.00
2023-05-03T02:56:55.783Z,75.77
2023-05-03T02:59:30.668Z,75.95
2023-05-03T03:02:04.252Z,75.82
2023-05-03T03:04:37.463Z,76.39
2023-05-03T03:07:10.575Z,76.94
2023-05-03T03:09:43.904Z,77.30
2023-05-03T03:12:17.439Z,77.80
2023-05-03T03:14:51.889Z,78.39
2023-05-03T03:17:24.876Z,78.41
2023-05-03T03:19:58.518Z,78.76
2023-05-03T03:22:31.481Z,79.05
2023-05-03T03:25:04.740Z,79.16
2023-05-03T03:27:39.513Z,78.98
2023-05-03T03:30:14.704Z,79.50
2023-05-03T03:32:47.710Z,79.04
2023-05-03T03:35:21.023Z,79.44
2023-05-03T03:37:54.039Z,79.13
2023-05-03T03:40:27.460Z,79.27
2023-05-03T03:43:00.376Z,79.41
2023-05-03T03:45:34.905Z,79.27
2023-05-03T03:48:08.117Z,79.06
2023-05-03T03:50:41.211Z,78.71
2023-05-03T03:53:14.266Z,79.10
2023-05-03T03:55:47.850Z,78.83
2023-05-03T03:58:20.932Z,78.93
2023-05-03T04:00:55.913Z,78.73
2023-05-03T04:03:29.328Z,78.85
2023-05-03T04:06:02.612Z,78.84
2023-05-03T04:08:35.514Z,79.01
2023-05-03T04:11:12.229Z,78.68
2023-05-03T04:13:45.019Z,78.40
2023-05-03T04:16:19.854Z,78.23
2023-05-03T04:18:52.567Z,78.32
2023-05-03T04:21:26.028Z,78.15
2023-05-03T04:24:00.364Z,78.50
2023-05-03T04:26:33.498Z,77.81
2023-05-03T04:29:07.434Z,77.73
2023-05-03T04:31:42.159Z,77.87
2023-05-03T04:34:16.148Z,78.04
2023-05-03T04:36:49.169Z,78.10
2023-05-03T04:39:22.555Z,78.62
2023-05-03T04:41:55.526Z,78.40
2023-05-03T04:44:28.472Z,79.14
2023-05-03T04:47:03.338Z,79.34
2023-05-03T04:49:36.494Z,79.38
2023-05-03T04:52:10.535Z,79.72
2023-05-03T04:54:43.814Z,80.32
2023-05-03T04:57:16.825Z,79.81
2023-05-03T04:59:50.714Z,80.65
2023-05-03T05:02:25.953Z,80.29
2023-05-03T05:04:59.102Z,80.77
2023-05-03T05:07:31.957Z,80.53
2023-05-03T05:10:05.334Z,80.97
2023-05-03T05:12:38.541Z,80.69
2023-05-03T05:15:11.850Z,81.07
2023-05-03T05:17:46.205Z,80.95
2023-05-03T05:20:19.939Z,80.42
2023-05-03T05:22:52.823Z,80.84
2023-05-03T05:25:26.317Z,80.37
2023-05-03T05:27:59.631Z,80.39
2023-05-03T05:30:33.170Z,80.78
2023-05-03T05:33:08.028Z,80.20
2023-05-03T05:35:41.041Z,80.38
2023-05-03T05:38:13.965Z,80.58
2023-05-03T05:40:46.891Z,80.04
2023-05-03T05:43:20.255Z,80.72
2023-05-03T05:45:53.082Z,80.62
2023-05-03T05:48:27.519Z,80.77
2023-05-03T05:51:00.198Z,80.38
2023-05-03T05:53:33.474Z,80.85
2023-05-03T05:56:06.425Z,80.39
2023-05-03T05:58:39.706Z,80.91
2023-05-03T06:01:12.843Z,81.17
2023-05-03T06:03:47.023Z,81.21
2023-05-03T06:06:19.906Z,81.36
2023-05-03T06:08:53.019Z,81.61
2023-05-03T06:11:26.927Z,81.69
2023-05-03T06:13:59.637Z,81.46
2023-05-03T06:16:32.427Z,81.85
2023-05-03T06:19:06.996Z,81.40
2023-05-03T06:21:39.720Z,81.29
2023-05-03T06:24:12.592Z,81.36
2023-05-03T06:26:45.282Z,80.94
2023-05-03T06:29:18.301Z,81.37
2023-05-03T06:31:51.047Z,81.25
2023-05-03T06:34:26.480Z,81.50
2023-05-03T06:37:01.412Z,81.83
2023-05-03T06:39:34.492Z,81.56
2023-05-03T06:42:07.941Z,82.02
2023-05-03T06:44:40.864Z,82.35
2023-05-03T06:47:13.620Z,81.66
2023-05-03T06:49:48.246Z,81.68
2023-05-03T06:52:21.076Z,81.96
2023-05-03T06:54:54.450Z,81.85
2023-05-03T06:57:28.777Z,81.74
2023-05-03T07:00:02.052Z,81.83
2023-05-03T07:02:35.107Z,81.79
2023-05-03T07:05:10.351Z,80.69
2023-05-03T07:07:43.353Z,81.37
2023-05-03T07:10:16.057Z,80.66
2023-05-03T07:12:48.675Z,81.28
2023-05-03T07:15:22.649Z,81.40
2023-05-03T07:17:55.336Z,81.26
2023-05-03T07:20:29.918Z,80.69
2023-05-03T07:23:02.846Z,81.38
2023-05-03T07:25:35.640Z,80.65
2023-05-03T07:28:08.403Z,80.94
2023-05-03T07:30:41.111Z,81.03
2023-05-03T07:33:14.360Z,80.57
2023-05-03T07:35:49.271Z,80.83
2023-05-03T07:38:22.236Z,81.22
2023-05-03T07:40:54.932Z,81.12
2023-05-03T07:43:27.659Z,81.27
2023-05-03T07:46:00.703Z,81.12
2023-05-03T07:48:33.382Z,81.83
2023-05-03T07:51:08.004Z,82.21
2023-05-03T07:53:41.370Z,80.72
2023-05-03T07:56:14.135Z,80.75
2023-05-03T07:58:50.979Z,81.74
2023-05-03T08:01:29.913Z,81.67
2023-05-03T08:04:02.888Z,81.04
2023-05-03T08:06:38.625Z,82.06
2023-05-03T08:09:11.707Z,81.10
2023-05-03T08:11:44.690Z,80.91
2023-05-03T08:14:17.445Z,82.31
2023-05-03T08:16:50.688Z,82.26
2023-05-03T08:19:23.751Z,81.74
2023-05-03T08:21:58.404Z,80.98
2023-05-03T08:24:31.124Z,81.21
2023-05-03T08:27:03.839Z,81.20
2023-05-03T08:29:38.483Z,80.71
2023-05-03T08:32:11.706Z,82.04
2023-05-03T08:34:44.363Z,79.97
2023-05-03T08:37:18.904Z,80.16
2023-05-03T08:39:52.312Z,79.89
2023-05-03T08:42:25.885Z,80.20
2023-05-03T08:44:58.684Z,79.52
2023-05-03T08:47:36.008Z,80.37
2023-05-03T08:50:11.526Z,79.66
2023-05-03T08:52:45.865Z,79.83
2023-05-03T08:55:19.140Z,78.71
2023-05-03T08:57:52.076Z,77.77
2023-05-03T09:00:29.128Z,78.06
2023-05-03T09:03:02.025Z,78.49
2023-05-03T09:05:35.690Z,75.79
2023-05-03T09:08:10.596Z,78.55
2023-05-03T09:10:43.799Z,79.77
2023-05-03T09:13:16.913Z,78.82
2023-05-03T09:15:54.636Z,77.12
2023-05-03T09:18:27.502Z,77.51
2023-05-03T09:21:00.275Z,74.91
2023-05-03T09:23:34.833Z,78.00
2023-05-03T09:26:07.548Z,76.46
2023-05-03T09:28:43.724Z,78.93
2023-05-03T09:31:16.713Z,79.01
2023-05-03T09:33:49.394Z,75.28
2023-05-03T09:36:22.263Z,75.31
2023-05-03T09:38:57.000Z,73.95
2023-05-03T09:41:32.778Z,75.72
2023-05-03T09:44:06.722Z,75.61
2023-05-03T09:46:39.634Z,77.02
2023-05-03T09:49:12.725Z,76.50
2023-05-03T09:51:45.567Z,77.22
2023-05-03T09:54:19.881Z,79.33
2023-05-03T09:56:53.581Z,79.63
2023-05-03T09:59:26.812Z,80.48
2023-05-03T10:02:00.139Z,81.72
2023-05-03T10:04:40.218Z,83.38
2023-05-03T10:07:14.396Z,80.33
2023-05-03T10:09:49.052Z,79.87
2023-05-03T10:12:22.733Z,77.73
2023-05-03T10:14:56.535Z,74.29
2023-05-03T10:17:47.094Z,72.90
2023-05-03T10:20:26.792Z,75.67
2023-05-03T10:23:09.841Z,75.64
2023-05-03T10:26:06.315Z,75.89
2023-05-03T10:28:39.071Z,75.67
2023-05-03T10:31:30.559Z,69.32
2023-05-03T10:34:20.369Z,76.37
2023-05-03T10:36:54.430Z,74.90
2023-05-03T10:39:29.785Z,75.73
2023-05-03T10:42:04.920Z,78.83
2023-05-03T10:44:40.101Z,78.78
2023-05-03T10:47:14.367Z,80.01
2023-05-03T10:49:47.405Z,80.10
2023-05-03T10:52:47.088Z,77.41
2023-05-03T10:55:20.850Z,79.42
2023-05-03T10:57:57.694Z,76.96
2023-05-03T11:00:34.062Z,79.40
2023-05-03T11:03:21.673Z,74.92
2023-05-03T11:05:54.491Z,76.27
2023-05-03T11:08:28.191Z,76.74
2023-05-03T11:11:02.565Z,71.77
2023-05-03T11:13:37.026Z,76.08
2023-05-03T11:16:09.881Z,76.29
2023-05-03T11:18:42.821Z,78.60
2023-05-03T11:21:16.106Z,73.35
2023-05-03T11:23:48.994Z,76.21
2023-05-03T11:26:26.340Z,75.27
2023-05-03T11:29:01.112Z,67.90
2023-05-03T11:31:35.644Z,75.09
2023-05-03T11:34:08.780Z,77.70
2023-05-03T11:36:42.153Z,81.49
2023-05-03T11:39:15.506Z,67.08
2023-05-03T11:42:02.755Z,78.99
2023-05-03T11:44:37.835Z,78.76
2023-05-03T11:47:11.184Z,78.93
2023-05-03T11:49:52.481Z,73.55
2023-05-03T11:52:27.359Z,78.09
2023-05-03T11:57:33.074Z,77.50
2023-05-03T12:00:17.761Z,74.35
2023-05-03T12:02:50.902Z,73.71
2023-05-03T12:05:24.615Z,74.59
2023-05-03T12:07:58.822Z,73.85
2023-05-03T12:10:33.376Z,69.29
2023-05-03T12:13:06.345Z,73.46
2023-05-03T12:15:43.751Z,67.55
2023-05-03T12:18:18.889Z,73.61
2023-05-03T12:21:30.115Z,74.29
2023-05-03T12:23:51.642Z,73.09
2023-05-03T12:26:25.810Z,69.92
2023-05-03T12:28:59.972Z,67.11
2023-05-03T12:31:39.416Z,75.19
2023-05-03T12:34:32.492Z,73.39
2023-05-03T12:37:06.512Z,73.63
2023-05-03T12:39:40.553Z,64.72
2023-05-03T12:42:15.126Z,68.21
2023-05-03T12:44:48.360Z,68.97
2023-05-03T12:47:28.380Z,74.16
2023-05-03T12:50:05.839Z,59.43
2023-05-03T12:52:39.318Z,75.60
2023-05-03T12:55:17.704Z,73.92
2023-05-03T12:58:10.416Z,73.08
2023-05-03T13:01:02.352Z,68.41
2023-05-03T13:03:43.459Z,72.48
2023-05-03T13:06:17.730Z,74.17
2023-05-03T13:08:51.135Z,71.90
2023-05-03T13:11:25.109Z,69.91
2023-05-03T13:13:58.007Z,73.91
2023-05-03T13:16:32.204Z,74.82
2023-05-03T13:19:06.784Z,69.17
2023-05-03T13:21:39.497Z,75.34
2023-05-03T13:24:12.193Z,71.06
2023-05-03T13:26:44.848Z,73.29
2023-05-03T13:29:17.767Z,74.33
2023-05-03T13:31:50.679Z,72.04
2023-05-03T13:34:25.013Z,75.69
2023-05-03T13:36:57.782Z,75.17
2023-05-03T13:39:30.556Z,75.38
2023-05-03T13:42:03.634Z,74.76
2023-05-03T13:44:36.323Z,74.37
2023-05-03T13:47:09.003Z,76.39
2023-05-03T13:49:43.313Z,71.91
2023-05-03T13:52:15.998Z,75.57
2023-05-03T13:54:49.016Z,74.13
2023-05-03T13:57:23.115Z,69.28
2023-05-03T13:59:56.120Z,73.40
2023-05-03T14:02:28.856Z,73.10
2023-05-03T14:05:03.553Z,73.60
2023-05-03T14:07:36.481Z,75.29
2023-05-03T14:10:10.374Z,76.80
2023-05-03T14:12:44.968Z,74.10
2023-05-03T14:15:22.497Z,71.96
2023-05-03T14:17:59.245Z,76.15
2023-05-03T14:20:35.951Z,77.40
2023-05-03T14:23:08.660Z,73.29
2023-05-03T14:25:41.398Z,70.75
2023-05-03T14:28:14.131Z,75.05
2023-05-03T14:30:47.000Z,73.64
2023-05-03T14:33:19.693Z,73.71
2023-05-03T14:35:55.591Z,76.29
2023-05-03T14:38:29.628Z,74.96
2023-05-03T14:41:02.268Z,72.10
2023-05-03T14:43:35.016Z,72.58
2023-05-03T14:46:08.759Z,75.94
2023-05-03T14:48:41.838Z,76.28
2023-05-03T14:51:16.482Z,73.75
2023-05-03T14:53:50.287Z,60.89
2023-05-03T14:56:25.501Z,72.51
2023-05-03T14:59:01.238Z,70.20
2023-05-03T15:01:33.992Z,70.38
2023-05-03T15:04:10.966Z,73.14
2023-05-03T15:06:45.657Z,74.19
2023-05-03T15:09:18.357Z,72.87
2023-05-03T15:11:51.242Z,66.99
2023-05-03T15:14:24.006Z,68.74
2023-05-03T15:16:56.769Z,75.42
2023-05-03T15:19:29.481Z,73.78
2023-05-03T15:22:03.764Z,74.00
2023-05-03T15:24:36.766Z,65.54
2023-05-03T15:27:10.197Z,73.43
2023-05-03T15:29:42.924Z,71.21
2023-05-03T15:32:15.691Z,70.57
2023-05-03T15:34:48.530Z,70.64
2023-05-03T15:37:23.494Z,71.50
2023-05-03T15:39:56.689Z,72.85
2023-05-03T15:42:29.485Z,74.45
2023-05-03T15:45:02.234Z,73.93
2023-05-03T15:47:35.245Z,69.95
2023-05-03T15:50:08.935Z,71.48
2023-05-03T15:52:43.382Z,66.43
2023-05-03T15:55:17.860Z,74.56
2023-05-03T15:57:52.526Z,73.31
2023-05-03T16:00:25.703Z,69.80
2023-05-03T16:02:58.882Z,72.09
2023-05-03T16:05:32.018Z,73.67
2023-05-03T16:08:07.119Z,71.53
2023-05-03T16:10:39.820Z,72.55
2023-05-03T16:13:13.431Z,71.50
2023-05-03T16:15:46.394Z,69.93
2023-05-03T16:18:19.310Z,69.41
2023-05-03T16:20:52.092Z,71.34
2023-05-03T16:23:26.330Z,67.53
2023-05-03T16:25:59.199Z,69.38
2023-05-03T16:28:32.332Z,70.69
2023-05-03T16:31:04.978Z,70.49
2023-05-03T16:33:37.837Z,68.06
2023-05-03T16:36:11.363Z,71.64
2023-05-03T16:38:45.535Z,73.36
2023-05-03T16:41:18.462Z,62.65
2023-05-03T16:43:51.369Z,72.39
2023-05-03T16:46:24.400Z,71.75
2023-05-03T16:48:57.405Z,68.53
2023-05-03T16:51:30.429Z,70.50
2023-05-03T16:54:04.768Z,74.19
2023-05-03T16:56:37.508Z,73.26
2023-05-03T16:59:10.347Z,71.75
2023-05-03T17:01:43.226Z,73.21
2023-05-03T17:04:16.305Z,73.86
2023-05-03T17:06:49.041Z,74.36
2023-05-03T17:09:23.305Z,73.02
2023-05-03T17:11:56.432Z,74.70
2023-05-03T17:14:29.419Z,72.32
2023-05-03T17:17:02.248Z,72.58
2023-05-03T17:19:35.024Z,69.59
2023-05-03T17:22:07.888Z,73.49
2023-05-03T17:24:42.129Z,71.54
2023-05-03T17:27:15.168Z,71.29
2023-05-03T17:29:48.056Z,68.12
2023-05-03T17:32:21.345Z,70.09
2023-05-03T17:34:54.137Z,73.75
2023-05-03T17:37:27.260Z,72.68
2023-05-03T17:40:01.448Z,72.59
2023-05-03T17:42:34.483Z,73.04
2023-05-03T17:45:08.267Z,71.70
2023-05-03T17:47:41.144Z,72.79
2023-05-03T17:50:13.996Z,72.10
2023-05-03T17:52:46.887Z,73.05
2023-05-03T17:55:21.041Z,71.90
2023-05-03T17:57:53.739Z,72.08
2023-05-03T18:00:27.974Z,72.16
2023-05-03T18:03:00.841Z,71.51
2023-05-03T18:05:37.204Z,72.68
2023-05-03T18:08:13.020Z,74.57
2023-05-03T18:10:47.090Z,74.09
2023-05-03T18:13:19.838Z,73.22
2023-05-03T18:15:54.084Z,73.21
2023-05-03T18:18:26.815Z,72.43
2023-05-03T18:21:00.219Z,72.12
2023-05-03T18:23:33.606Z,72.18
2023-05-03T18:26:08.457Z,71.81
2023-05-03T18:28:41.279Z,71.36
2023-05-03T18:31:14.387Z,71.10
2023-05-03T18:33:47.144Z,71.38
2023-05-03T18:36:22.035Z,71.39
2023-05-03T18:38:54.766Z,71.75
2023-05-03T18:41:28.929Z,72.81
2023-05-03T18:44:01.844Z,71.67
2023-05-03T18:46:37.220Z,71.75
2023-05-03T18:49:10.014Z,71.61
2023-05-03T18:51:42.681Z,71.22
2023-05-03T18:54:15.830Z,71.48
2023-05-03T18:56:49.952Z,70.50
2023-05-03T18:59:22.695Z,70.83
2023-05-03T19:01:55.561Z,70.96
2023-05-03T19:04:28.499Z,70.92
2023-05-03T19:07:01.358Z,71.03
2023-05-03T19:09:34.144Z,71.12
2023-05-03T19:12:09.689Z,71.39
2023-05-03T19:14:42.392Z,71.05
2023-05-03T19:17:15.213Z,71.32
2023-05-03T19:19:47.892Z,71.28
2023-05-03T19:22:20.668Z,71.64
2023-05-03T19:24:53.334Z,71.12
2023-05-03T19:27:27.577Z,71.46
2023-05-03T19:30:00.306Z,71.12
2023-05-03T19:32:35.387Z,71.64
2023-05-03T19:35:09.542Z,71.26
2023-05-03T19:37:43.741Z,71.33
2023-05-03T19:40:16.494Z,71.43
2023-05-03T19:42:52.438Z,71.43
2023-05-03T19:45:25.149Z,71.62
2023-05-03T19:47:57.902Z,71.41
2023-05-03T19:50:30.789Z,71.55
2023-05-03T19:53:03.677Z,71.57
2023-05-03T19:55:36.380Z,71.38
2023-05-03T19:58:10.455Z,71.56
2023-05-03T20:00:43.118Z,71.83
2023-05-03T20:03:15.962Z,71.58
2023-05-03T20:05:48.712Z,71.83
2023-05-03T20:08:21.481Z,71.82
2023-05-03T20:10:55.667Z,71.69
2023-05-03T20:13:30.307Z,71.99
2023-05-03T20:16:04.925Z,72.07
2023-05-03T20:18:37.828Z,71.97
2023-05-03T20:21:11.086Z,72.10
2023-05-03T20:23:44.307Z,72.17
2023-05-03T20:26:19.086Z,72.19
2023-05-03T20:28:53.193Z,72.01
2023-05-03T20:31:25.917Z,72.38
2023-05-03T20:33:58.698Z,72.26
2023-05-03T20:36:31.484Z,72.38
2023-05-03T20:39:04.984Z,72.15
2023-05-03T20:41:37.767Z,72.56
2023-05-03T20:44:12.210Z,72.20
2023-05-03T20:46:45.482Z,72.64
2023-05-03T20:49:19.579Z,72.26
2023-05-03T20:51:52.390Z,72.30
2023-05-03T20:54:25.197Z,72.34
2023-05-03T20:56:58.368Z,72.44
2023-05-03T20:59:32.658Z,72.38
2023-05-03T21:02:05.471Z,72.25
2023-05-03T21:04:38.608Z,72.56
2023-05-03T21:07:11.365Z,72.64
2023-05-03T21:09:44.572Z,72.45
2023-05-03T21:12:17.608Z,72.70
2023-05-03T21:14:51.965Z,72.76
2023-05-03T21:17:24.816Z,73.00
2023-05-03T21:19:57.889Z,72.75
2023-05-03T21:22:31.281Z,72.83
2023-05-03T21:25:04.459Z,72.63
2023-05-03T21:27:37.111Z,72.46
2023-05-03T21:30:13.694Z,72.53
2023-05-03T21:32:46.846Z,72.53
2023-05-03T21:35:20.606Z,72.92
2023-05-03T21:37:53.469Z,73.07
2023-05-03T21:40:26.223Z,73.23
2023-05-03T21:42:59.181Z,72.86
2023-05-03T21:45:33.452Z,73.37
2023-05-03T21:48:06.559Z,73.01
2023-05-03T21:50:39.937Z,73.24
2023-05-03T21:53:12.662Z,73.47
2023-05-03T21:55:45.792Z,73.36
2023-05-03T21:58:19.108Z,72.90
2023-05-03T22:00:53.671Z,73.54
2023-05-03T22:03:26.498Z,73.51
2023-05-03T22:05:59.418Z,73.10
2023-05-03T22:08:32.264Z,73.71
2023-05-03T22:11:07.481Z,73.29
2023-05-03T22:13:54.556Z,73.71
2023-05-03T22:16:34.133Z,73.86
2023-05-03T22:19:07.963Z,73.41
2023-05-03T22:21:40.696Z,73.34
2023-05-03T22:24:13.536Z,73.04
2023-05-03T22:26:46.450Z,73.39
2023-05-03T22:29:19.175Z,73.54
2023-05-03T22:31:53.998Z,73.43
2023-05-03T22:34:27.079Z,73.92
2023-05-03T22:37:00.105Z,73.84
2023-05-03T22:39:32.877Z,73.54
2023-05-03T22:42:05.821Z,73.22
2023-05-03T22:44:39.030Z,74.12
2023-05-03T22:47:13.144Z,74.02
2023-05-03T22:49:45.899Z,73.45
2023-05-03T22:52:18.759Z,73.53
2023-05-03T22:54:55.627Z,73.75
2023-05-03T22:57:28.397Z,73.66
2023-05-03T23:00:01.113Z,73.63
2023-05-03T23:02:35.445Z,73.53
2023-05-03T23:05:08.791Z,73.78
2023-05-03T23:07:42.281Z,73.97
2023-05-03T23:10:15.045Z,74.51
2023-05-03T23:12:47.849Z,74.32
2023-05-03T23:15:20.649Z,74.30
2023-05-03T23:17:55.103Z,73.94
2023-05-03T23:20:27.796Z,73.92
2023-05-03T23:23:00.823Z,73.95
2023-05-03T23:25:33.685Z,73.95
2023-05-03T23:28:06.575Z,74.07
2023-05-03T23:30:42.974Z,73.73
2023-05-03T23:33:17.859Z,73.89
2023-05-03T23:35:51.440Z,73.94
2023-05-03T23:38:24.333Z,73.74
2023-05-03T23:40:57.069Z,73.77
2023-05-03T23:43:29.842Z,73.95
2023-05-03T23:46:02.670Z,73.56
2023-05-03T23:48:36.866Z,73.59
2023-05-03T23:51:09.529Z,74.16
2023-05-03T23:53:42.193Z,73.38
2023-05-03T23:56:14.931Z,73.80
2023-05-03T23:58:47.729Z,74.04
